Boca Raton, FL (33431)

6:02 PM EST on February 10, 2016 (GMT -0500)
Boca East | | Change Station
CLOSE
Current Station
Personal Weather Station
Location: Boca Raton, FL
Elevation: 46 ft
Nearby Weather Stations

Elev 46 ft 26.39 °N, 80.11 °W | Updated 13 minutes ago

Mostly Cloudy
Mostly Cloudy
61.6 °F
Feels Like 61.6 °F
N
5.0
Wind Variable Wind from NW
Gusts 13.0 mph

Today
High -- | Low -- °F
--% Chance of Precip.
Yesterday
High -- | Low -- °F
Precip. -- in
Pressure 30.20 in
Visibility 10.0 miles
Clouds Few 6000 ft
Scattered Clouds 18000 ft
Mostly Cloudy 25000 ft
Dew Point 44 °F
Humidity 53%
Rainfall 0.00 in
Snow Depth Not available.
7:00 AM 6:09 PM
Waxing Crescent, 7% visible
METAR KPMP 102253Z 28006KT 10SM FEW060 SCT180 BKN250 16/06 A3019 RMK AO2 SLP225 T01610061
Pressure 30.20 in
Visibility 10.0 miles
Clouds Few 6000 ft
Scattered Clouds 18000 ft
Mostly Cloudy 25000 ft
Dew Point 44 °F
Humidity 53%
Rainfall 0.00 in
Snow Depth Not available.
7:00 AM 6:09 PM
Waxing Crescent, 7% visible
METAR KPMP 102253Z 28006KT 10SM FEW060 SCT180 BKN250 16/06 A3019 RMK AO2 SLP225 T01610061

10-Day Weather Forecast

Almanac

Astronomy

Feb. 10, 2016 Rise Set
Actual Time
Civil Twilight
Nautical Twilight
Astronomical Twilight
Moon
Length of Visible Light
Length of Day
Tomorrow will be .
, % of the Moon is Illuminated

Today's Extremes

State Highs State Lows

Community

WunderPhotos

Upload Photos

1,891,933 photos uploaded!

WunderBlog® & News

Nearby

Air Quality

  Air Quality AQ Index Pollutant
Not available.

Snow Depth

Station Depth Elevation

Earthquake Activity

City Distance Mag. Time & Date
Minimum magnitude displayed is 2.5.

Coastal Water Temperatures

Place Temperature

Stations

Nearby Weather Stations

Station Location Temp. Windchill Dew Point Humidity Wind Precip. Elev Updated Type
                   

Watches & Warnings

There are currently no watches in effect.